createdAt,value
2017-12-10T00:00:01.581Z,93882.41
2017-12-10T00:02:29.633Z,93885.30
2017-12-10T00:04:57.978Z,93876.98
2017-12-10T00:07:26.355Z,93870.16
2017-12-10T00:09:54.694Z,93859.08
2017-12-10T00:12:23.036Z,93853.05
2017-12-10T00:14:51.373Z,93849.06
2017-12-10T00:17:19.711Z,93859.81
2017-12-10T00:19:48.087Z,93855.98
2017-12-10T00:22:16.456Z,93854.95
2017-12-10T00:24:44.799Z,93852.91
2017-12-10T00:27:13.179Z,93851.55
2017-12-10T00:29:41.531Z,93839.69
2017-12-10T00:32:09.930Z,93841.02
2017-12-10T00:34:38.247Z,93828.38
2017-12-10T00:37:06.586Z,93817.75
2017-12-10T00:39:34.990Z,93818.58
2017-12-10T00:42:03.330Z,93812.20
2017-12-10T00:44:31.704Z,93815.80
2017-12-10T00:47:00.082Z,93810.14
2017-12-10T00:49:28.419Z,93800.61
2017-12-10T00:51:56.767Z,93781.09
2017-12-10T00:54:25.108Z,93792.95
2017-12-10T00:56:53.454Z,93787.89
2017-12-10T00:59:21.801Z,93782.91
2017-12-10T01:01:50.163Z,93770.71
2017-12-10T01:04:18.588Z,93775.17
2017-12-10T01:06:46.926Z,93767.48
2017-12-10T01:09:15.272Z,93753.23
2017-12-10T01:11:43.611Z,93756.37
2017-12-10T01:14:11.963Z,93754.08
2017-12-10T01:16:40.295Z,93759.48
2017-12-10T01:19:08.646Z,93755.91
2017-12-10T01:21:37.031Z,93749.67
2017-12-10T01:24:05.369Z,93744.93
2017-12-10T01:26:33.744Z,93735.89
2017-12-10T01:29:02.087Z,93738.16
2017-12-10T01:31:30.426Z,93738.80
2017-12-10T01:33:58.789Z,93736.58
2017-12-10T01:36:27.115Z,93726.34
2017-12-10T01:38:55.451Z,93723.68
2017-12-10T01:41:23.791Z,93721.25
2017-12-10T01:43:52.139Z,93723.22
2017-12-10T01:46:20.479Z,93711.05
2017-12-10T01:48:48.865Z,93715.14
2017-12-10T01:51:17.247Z,93703.25
2017-12-10T01:53:45.583Z,93691.48
2017-12-10T01:56:13.923Z,93681.73
2017-12-10T01:58:42.268Z,93688.17
2017-12-10T02:01:10.629Z,93677.30
2017-12-10T02:03:38.968Z,93684.17
2017-12-10T02:06:07.307Z,93681.17
2017-12-10T02:08:35.699Z,93671.23
2017-12-10T02:11:04.038Z,93671.56
2017-12-10T02:13:32.447Z,93664.39
2017-12-10T02:16:00.790Z,93665.50
2017-12-10T02:18:29.118Z,93659.01
2017-12-10T02:20:57.454Z,93645.78
2017-12-10T02:23:25.796Z,93645.33
2017-12-10T02:25:54.167Z,93639.80
2017-12-10T02:28:22.504Z,93634.28
2017-12-10T02:30:50.847Z,93620.94
2017-12-10T02:33:19.192Z,93622.75
2017-12-10T02:35:48.346Z,93615.52
2017-12-10T02:38:16.689Z,93609.78
2017-12-10T02:40:45.059Z,93606.00
2017-12-10T02:43:13.401Z,93600.51
2017-12-10T02:45:41.731Z,93593.88
2017-12-10T02:48:10.071Z,93587.52
2017-12-10T02:50:38.410Z,93580.98
2017-12-10T02:53:06.751Z,93576.36
2017-12-10T02:55:36.019Z,93559.42
2017-12-10T02:58:04.374Z,93556.45
2017-12-10T03:00:32.702Z,93556.23
2017-12-10T03:03:01.040Z,93552.34
2017-12-10T03:05:29.366Z,93540.31
2017-12-10T03:07:57.710Z,93533.30
2017-12-10T03:10:28.667Z,93538.59
2017-12-10T03:15:20.114Z,93523.63
2017-12-10T03:17:48.489Z,93512.55
2017-12-10T03:20:16.823Z,93510.52
2017-12-10T03:22:45.166Z,93512.83
2017-12-10T03:25:13.771Z,93502.86
2017-12-10T03:27:42.091Z,93486.09
2017-12-10T03:30:10.474Z,93497.21
2017-12-10T03:32:38.865Z,93487.05
2017-12-10T03:35:07.200Z,93477.00
2017-12-10T03:37:35.541Z,93468.20
2017-12-10T03:40:03.886Z,93483.16
2017-12-10T03:42:32.269Z,93467.55
2017-12-10T03:45:00.610Z,93451.73
2017-12-10T03:47:28.947Z,93435.48
2017-12-10T03:49:57.284Z,93445.03
2017-12-10T03:52:25.626Z,93454.46
2017-12-10T03:54:54.011Z,93434.89
2017-12-10T03:57:22.347Z,93429.20
2017-12-10T03:59:50.693Z,93423.32
2017-12-10T04:02:19.082Z,93421.48
2017-12-10T04:04:47.379Z,93407.75
2017-12-10T04:07:15.723Z,93401.59
2017-12-10T04:09:44.050Z,93398.20
2017-12-10T04:12:12.383Z,93379.75
2017-12-10T04:14:40.732Z,93385.36
2017-12-10T04:17:09.098Z,93380.97
2017-12-10T04:19:37.432Z,93377.91
2017-12-10T04:22:05.826Z,93365.52
2017-12-10T04:24:34.166Z,93360.55
2017-12-10T04:27:02.490Z,93361.75
2017-12-10T04:29:30.815Z,93360.39
2017-12-10T04:31:59.151Z,93356.63
2017-12-10T04:34:27.482Z,93349.00
2017-12-10T04:36:55.818Z,93353.81
2017-12-10T04:39:24.212Z,93349.66
2017-12-10T04:41:52.621Z,93341.19
2017-12-10T04:44:20.969Z,93333.86
2017-12-10T04:46:49.301Z,93326.81
2017-12-10T04:49:17.642Z,93329.53
2017-12-10T04:51:45.994Z,93314.09
2017-12-10T04:54:14.338Z,93314.05
2017-12-10T04:56:42.717Z,93313.01
2017-12-10T04:59:11.209Z,93300.60
2017-12-10T05:01:39.562Z,93290.59
2017-12-10T05:04:07.915Z,93275.78
2017-12-10T05:06:36.262Z,93274.47
2017-12-10T05:09:04.607Z,93285.79
2017-12-10T05:11:32.952Z,93269.70
2017-12-10T05:14:01.291Z,93254.44
2017-12-10T05:16:29.687Z,93238.48
2017-12-10T05:18:58.027Z,93239.53
2017-12-10T05:21:26.366Z,93229.97
2017-12-10T05:23:54.700Z,93221.27
2017-12-10T05:26:23.040Z,93213.17
2017-12-10T05:28:51.406Z,93213.70
2017-12-10T05:31:19.741Z,93198.55
2017-12-10T05:33:48.094Z,93204.50
2017-12-10T05:36:16.432Z,93205.00
2017-12-10T05:38:44.771Z,93204.69
2017-12-10T05:41:13.258Z,93202.27
2017-12-10T05:43:41.598Z,93190.05
2017-12-10T05:46:09.950Z,93183.14
2017-12-10T05:48:38.298Z,93176.02
2017-12-10T05:51:06.631Z,93173.89
2017-12-10T05:53:34.960Z,93170.41
2017-12-10T05:56:03.299Z,93169.84
2017-12-10T05:58:31.679Z,93158.27
2017-12-10T06:01:00.015Z,93141.72
2017-12-10T06:03:28.352Z,93135.37
2017-12-10T06:05:56.692Z,93129.31
2017-12-10T06:08:25.035Z,93114.34
2017-12-10T06:10:53.500Z,93122.32
2017-12-10T06:13:21.844Z,93109.42
2017-12-10T06:15:50.184Z,93096.23
2017-12-10T06:18:18.536Z,93095.59
2017-12-10T06:20:46.883Z,93079.47
2017-12-10T06:23:15.259Z,93074.97
2017-12-10T06:25:43.599Z,93062.30
2017-12-10T06:28:11.935Z,93057.38
2017-12-10T06:30:40.276Z,93027.23
2017-12-10T06:33:08.603Z,93015.52
2017-12-10T06:35:36.958Z,93020.17
2017-12-10T06:38:05.312Z,92996.30
2017-12-10T06:40:34.102Z,93012.90
2017-12-10T06:43:02.456Z,93006.36
2017-12-10T06:45:30.799Z,92998.39
2017-12-10T06:47:59.135Z,92992.22
2017-12-10T06:50:27.475Z,92987.70
2017-12-10T06:52:55.822Z,92984.52
2017-12-10T06:55:24.146Z,92973.81
2017-12-10T06:57:52.511Z,92962.45
2017-12-10T07:00:20.852Z,92960.33
2017-12-10T07:02:49.192Z,92954.10
2017-12-10T07:05:17.517Z,92953.42
2017-12-10T07:07:45.865Z,92942.53
2017-12-10T07:10:14.203Z,92935.41
2017-12-10T07:12:42.544Z,92939.14
2017-12-10T07:15:10.871Z,92926.67
2017-12-10T07:17:39.201Z,92917.41
2017-12-10T07:20:07.571Z,92910.25
2017-12-10T07:22:35.907Z,92913.24
2017-12-10T07:25:04.250Z,92906.39
2017-12-10T07:27:32.798Z,92906.41
2017-12-10T07:30:01.099Z,92891.96
2017-12-10T07:32:29.446Z,92896.40
2017-12-10T07:34:57.786Z,92895.59
2017-12-10T07:37:26.119Z,92895.48
2017-12-10T07:39:54.461Z,92889.30
2017-12-10T07:42:22.807Z,92881.75
2017-12-10T07:44:51.143Z,92874.14
2017-12-10T07:47:19.509Z,92857.00
2017-12-10T07:49:47.842Z,92858.09
2017-12-10T07:52:16.201Z,92846.00
2017-12-10T07:54:44.583Z,92842.61
2017-12-10T07:57:12.944Z,92836.47
2017-12-10T07:59:41.277Z,92837.37
2017-12-10T08:02:09.615Z,92837.52
2017-12-10T08:04:37.958Z,92820.65
2017-12-10T08:07:06.319Z,92811.42
2017-12-10T08:09:34.688Z,92804.93
2017-12-10T08:12:03.052Z,92796.36
2017-12-10T08:14:31.391Z,92773.80
2017-12-10T08:16:59.739Z,92782.27
2017-12-10T08:19:28.067Z,92777.87
2017-12-10T08:21:56.411Z,92763.04
2017-12-10T08:24:24.762Z,92756.55
2017-12-10T08:26:53.139Z,92738.46
2017-12-10T08:29:21.480Z,92738.70
2017-12-10T08:31:49.877Z,92731.20
2017-12-10T08:34:18.194Z,92742.73
2017-12-10T08:36:46.545Z,92716.55
2017-12-10T08:39:14.911Z,92717.06
2017-12-10T08:41:43.251Z,92704.28
2017-12-10T08:44:11.594Z,92703.83
2017-12-10T08:46:39.937Z,92690.29
2017-12-10T08:49:08.283Z,92689.59
2017-12-10T08:51:36.651Z,92690.59
2017-12-10T08:54:05.013Z,92681.23
2017-12-10T08:56:33.359Z,92678.71
2017-12-10T08:59:01.715Z,92668.08
2017-12-10T09:01:30.076Z,92649.77
2017-12-10T09:03:58.484Z,92644.61
2017-12-10T09:06:26.839Z,92634.32
2017-12-10T09:08:55.203Z,92623.53
2017-12-10T09:11:23.544Z,92608.35
2017-12-10T09:13:51.923Z,92603.95
2017-12-10T09:16:20.288Z,92581.64
2017-12-10T09:18:48.638Z,92578.88
2017-12-10T09:21:17.020Z,92569.37
2017-12-10T09:23:45.375Z,92552.05
2017-12-10T09:26:13.724Z,92545.24
2017-12-10T09:28:42.075Z,92548.59
2017-12-10T09:31:10.467Z,92546.91
2017-12-10T09:33:38.795Z,92506.95
2017-12-10T09:36:07.151Z,92494.69
2017-12-10T09:38:35.499Z,92490.15
2017-12-10T09:41:04.012Z,92476.98
2017-12-10T09:43:32.355Z,92450.58
2017-12-10T09:46:00.712Z,92450.02
2017-12-10T09:48:29.059Z,92421.64
2017-12-10T09:50:57.415Z,92421.59
2017-12-10T09:53:25.768Z,92401.64
2017-12-10T09:55:54.112Z,92380.33
2017-12-10T09:58:22.483Z,92375.88
2017-12-10T10:00:50.835Z,92363.00
2017-12-10T10:03:19.180Z,92379.41
2017-12-10T10:05:47.541Z,92358.14
2017-12-10T10:08:15.875Z,92342.67
2017-12-10T10:10:44.222Z,92334.88
2017-12-10T10:13:12.588Z,92324.33
2017-12-10T10:15:40.953Z,92303.03
2017-12-10T10:18:09.307Z,92274.61
2017-12-10T10:20:37.659Z,92260.42
2017-12-10T10:23:07.782Z,92250.95
2017-12-10T10:25:36.157Z,92243.05
2017-12-10T10:28:04.515Z,92211.64
2017-12-10T10:30:32.864Z,92205.17
2017-12-10T10:33:01.215Z,92200.21
2017-12-10T10:35:29.572Z,92183.35
2017-12-10T10:37:57.908Z,92169.13
2017-12-10T10:40:26.273Z,92156.42
2017-12-10T10:42:54.661Z,92156.64
2017-12-10T10:45:23.013Z,92138.61
2017-12-10T10:47:51.374Z,92132.47
2017-12-10T10:50:19.721Z,92114.08
2017-12-10T10:52:48.079Z,92100.48
2017-12-10T10:55:16.438Z,92090.91
2017-12-10T10:57:44.811Z,92086.48
2017-12-10T11:00:13.157Z,92078.35
2017-12-10T11:02:41.531Z,92060.58
2017-12-10T11:05:09.888Z,92039.86
2017-12-10T11:07:38.228Z,92032.54
2017-12-10T11:10:06.581Z,91999.95
2017-12-10T11:12:34.922Z,91999.53
2017-12-10T11:15:03.332Z,91994.50
2017-12-10T11:17:31.687Z,91983.14
2017-12-10T11:20:00.027Z,91964.95
2017-12-10T11:22:28.364Z,91942.59
2017-12-10T11:24:56.735Z,91927.31
2017-12-10T11:27:25.070Z,91921.34
2017-12-10T11:29:53.412Z,91890.16
2017-12-10T11:32:21.774Z,91880.33
2017-12-10T11:34:50.161Z,91843.92
2017-12-10T11:37:18.572Z,91831.72
2017-12-10T11:39:46.921Z,91809.24
2017-12-10T11:42:15.287Z,91782.16
2017-12-10T11:44:43.627Z,91774.62
2017-12-10T11:47:12.021Z,91753.80
2017-12-10T11:49:40.650Z,91758.48
2017-12-10T11:52:08.990Z,91739.16
2017-12-10T11:54:37.372Z,91727.16
2017-12-10T11:57:05.707Z,91711.36
2017-12-10T11:59:34.104Z,91713.59
2017-12-10T12:02:02.449Z,91700.13
2017-12-10T12:04:30.811Z,91686.19
2017-12-10T12:06:59.188Z,91683.74
2017-12-10T12:09:27.528Z,91680.45
2017-12-10T12:11:56.039Z,91681.67
2017-12-10T12:14:24.379Z,91682.74
2017-12-10T12:16:52.725Z,91687.99
2017-12-10T12:19:21.097Z,91683.66
2017-12-10T12:21:49.447Z,91667.34
2017-12-10T12:24:17.792Z,91656.14
2017-12-10T12:26:46.128Z,91623.14
2017-12-10T12:29:14.463Z,91603.49
2017-12-10T12:31:42.855Z,91581.92
2017-12-10T12:34:11.204Z,91539.89
2017-12-10T12:36:39.546Z,91517.16
2017-12-10T12:39:08.063Z,91534.80
2017-12-10T12:41:36.421Z,91536.11
2017-12-10T12:44:04.759Z,91549.80
2017-12-10T12:46:33.107Z,91580.52
2017-12-10T12:49:01.491Z,91586.73
2017-12-10T12:51:29.871Z,91577.56
2017-12-10T12:53:58.212Z,91567.18
2017-12-10T12:56:26.555Z,91547.31
2017-12-10T12:58:54.889Z,91550.20
2017-12-10T13:01:23.258Z,91563.34
2017-12-10T13:03:51.642Z,91538.19
2017-12-10T13:06:20.011Z,91549.80
2017-12-10T13:08:48.387Z,91519.39
2017-12-10T13:11:16.728Z,91523.83
2017-12-10T13:13:45.112Z,91511.84
2017-12-10T13:16:13.505Z,91475.53
2017-12-10T13:18:41.822Z,91474.25
2017-12-10T13:21:10.169Z,91468.41
2017-12-10T13:23:38.507Z,91476.51
2017-12-10T13:26:06.883Z,91464.32
2017-12-10T13:28:35.233Z,91466.20
2017-12-10T13:31:03.620Z,91456.85
2017-12-10T13:33:31.956Z,91456.49
2017-12-10T13:36:00.312Z,91434.50
2017-12-10T13:38:28.780Z,91431.73
2017-12-10T13:40:57.121Z,91450.11
2017-12-10T13:43:25.462Z,91402.64
2017-12-10T13:45:53.803Z,91400.61
2017-12-10T13:48:22.155Z,91384.91
2017-12-10T13:50:50.527Z,91415.30
2017-12-10T13:53:18.872Z,91413.19
2017-12-10T13:55:47.219Z,91381.02
2017-12-10T13:58:15.597Z,91389.57
2017-12-10T14:00:43.940Z,91383.98
2017-12-10T14:03:12.279Z,91395.78
2017-12-10T14:05:40.620Z,91398.02
2017-12-10T14:08:08.991Z,91381.61
2017-12-10T14:10:37.455Z,91374.72
2017-12-10T14:13:05.823Z,91373.59
2017-12-10T14:15:34.167Z,91365.34
2017-12-10T14:18:02.521Z,91367.46
2017-12-10T14:20:30.901Z,91360.22
2017-12-10T14:22:59.240Z,91363.38
2017-12-10T14:25:27.600Z,91349.50
2017-12-10T14:27:56.007Z,91318.92
2017-12-10T14:30:24.387Z,91327.88
2017-12-10T14:32:52.747Z,91356.07
2017-12-10T14:35:21.117Z,91327.82
2017-12-10T14:37:49.529Z,91308.98
2017-12-10T14:40:17.863Z,91285.14
2017-12-10T14:42:46.211Z,91274.48
2017-12-10T14:45:14.561Z,91289.59
2017-12-10T14:47:42.891Z,91287.49
2017-12-10T14:50:11.403Z,91271.50
2017-12-10T14:52:39.752Z,91277.73
2017-12-10T14:55:08.097Z,91252.75
2017-12-10T14:57:36.448Z,91271.62
2017-12-10T15:00:04.787Z,91288.39
2017-12-10T15:02:33.175Z,91274.39
2017-12-10T15:05:01.523Z,91272.52
2017-12-10T15:07:29.879Z,91267.61
2017-12-10T15:09:58.236Z,91282.06
2017-12-10T15:12:26.600Z,91267.80
2017-12-10T15:14:54.932Z,91243.56
2017-12-10T15:17:23.294Z,91266.75
2017-12-10T15:19:51.631Z,91259.37
2017-12-10T15:22:20.028Z,91249.09
2017-12-10T15:24:48.395Z,91258.41
2017-12-10T15:27:16.757Z,91249.52
2017-12-10T15:29:45.091Z,91247.45
2017-12-10T15:32:13.455Z,91264.77
2017-12-10T15:34:41.820Z,91266.80
2017-12-10T15:37:10.151Z,91252.53
2017-12-10T15:39:38.527Z,91243.70
2017-12-10T15:42:06.863Z,91237.64
2017-12-10T15:44:35.219Z,91246.68
2017-12-10T15:47:03.590Z,91231.38
2017-12-10T15:49:31.919Z,91224.85
2017-12-10T15:52:00.314Z,91220.94
2017-12-10T15:54:28.675Z,91224.09
2017-12-10T15:56:57.049Z,91224.58
2017-12-10T15:59:25.383Z,91229.11
2017-12-10T16:01:53.720Z,91215.50
2017-12-10T16:04:22.051Z,91204.08
2017-12-10T16:06:50.955Z,91200.59
2017-12-10T16:09:19.480Z,91198.13
2017-12-10T16:11:47.843Z,91187.09
2017-12-10T16:14:16.295Z,91192.11
2017-12-10T16:16:44.774Z,91186.40
2017-12-10T16:19:13.275Z,91188.57
2017-12-10T16:21:41.635Z,91192.66
2017-12-10T16:24:10.152Z,91185.11
2017-12-10T16:26:38.491Z,91193.13
2017-12-10T16:29:06.852Z,91184.70
2017-12-10T16:31:35.198Z,91197.28
2017-12-10T16:34:03.547Z,91197.61
2017-12-10T16:36:31.911Z,91186.38
2017-12-10T16:39:00.251Z,91185.20
2017-12-10T16:41:28.707Z,91190.84
2017-12-10T16:43:57.090Z,91194.32
2017-12-10T16:46:25.436Z,91193.27
2017-12-10T16:48:53.783Z,91188.51
2017-12-10T16:51:22.120Z,91194.50
2017-12-10T16:53:50.464Z,91188.51
2017-12-10T16:56:18.828Z,91199.63
2017-12-10T16:58:47.162Z,91202.45
2017-12-10T17:01:15.554Z,91198.25
2017-12-10T17:03:43.906Z,91210.53
2017-12-10T17:06:12.239Z,91199.73
2017-12-10T17:08:40.584Z,91208.80
2017-12-10T17:11:08.915Z,91199.72
2017-12-10T17:13:37.292Z,91192.07
2017-12-10T17:16:05.630Z,91189.84
2017-12-10T17:18:33.972Z,91200.14
2017-12-10T17:21:02.306Z,91195.42
2017-12-10T17:23:30.679Z,91200.64
2017-12-10T17:25:59.018Z,91204.81
2017-12-10T17:28:27.359Z,91195.44
2017-12-10T17:30:55.701Z,91198.30
2017-12-10T17:33:24.048Z,91200.31
2017-12-10T17:35:52.423Z,91208.59
2017-12-10T17:38:20.771Z,91194.91
2017-12-10T17:40:49.159Z,91219.23
2017-12-10T17:43:17.502Z,91209.61
2017-12-10T17:45:45.972Z,91207.05
2017-12-10T17:48:14.331Z,91211.31
2017-12-10T17:50:42.688Z,91195.63
2017-12-10T17:53:11.074Z,91203.92
2017-12-10T17:55:39.423Z,91202.78
2017-12-10T17:58:07.776Z,91216.76
2017-12-10T18:00:36.117Z,91220.50
2017-12-10T18:03:04.473Z,91218.13
2017-12-10T18:05:32.870Z,91207.53
2017-12-10T18:08:01.220Z,91220.12
2017-12-10T18:10:29.582Z,91182.50
2017-12-10T18:12:57.966Z,91210.74
2017-12-10T18:15:26.322Z,91220.34
2017-12-10T18:17:54.710Z,91218.05
2017-12-10T18:20:23.099Z,91213.66
2017-12-10T18:22:51.447Z,91215.59
2017-12-10T18:25:20.396Z,91209.06
2017-12-10T18:27:48.734Z,91205.50
2017-12-10T18:30:17.112Z,91204.97
2017-12-10T18:32:45.505Z,91211.31
2017-12-10T18:35:13.876Z,91217.58
2017-12-10T18:37:42.219Z,91214.70
2017-12-10T18:40:10.575Z,91218.94
2017-12-10T18:42:38.927Z,91213.50
2017-12-10T18:45:07.314Z,91205.80
2017-12-10T18:47:35.667Z,91217.59
2017-12-10T18:50:04.041Z,91208.98
2017-12-10T18:52:32.379Z,91222.77
2017-12-10T18:55:00.727Z,91202.05
2017-12-10T18:57:29.107Z,91198.76
2017-12-10T18:59:57.503Z,91211.83
2017-12-10T19:02:25.928Z,91231.13
2017-12-10T19:04:54.291Z,91205.64
2017-12-10T19:07:22.686Z,91216.59
2017-12-10T19:09:51.041Z,91229.50
2017-12-10T19:12:19.419Z,91221.27
2017-12-10T19:14:47.771Z,91207.00
2017-12-10T19:17:16.147Z,91223.44
2017-12-10T19:19:44.529Z,91196.08
2017-12-10T19:22:12.868Z,91228.17
2017-12-10T19:24:41.215Z,91214.25
2017-12-10T19:27:09.559Z,91200.77
2017-12-10T19:29:37.935Z,91211.46
2017-12-10T19:32:06.293Z,91226.45
2017-12-10T19:34:34.668Z,91217.23
2017-12-10T19:37:03.072Z,91220.50
2017-12-10T19:39:31.442Z,91222.94
2017-12-10T19:41:59.868Z,91217.05
2017-12-10T19:44:28.236Z,91208.88
2017-12-10T19:46:56.630Z,91212.82
2017-12-10T19:49:24.970Z,91205.87
2017-12-10T19:51:53.326Z,91201.20
2017-12-10T19:54:21.685Z,91206.61
2017-12-10T19:56:50.061Z,91195.05
2017-12-10T19:59:18.414Z,91210.33
2017-12-10T20:01:46.799Z,91205.70
2017-12-10T20:04:15.157Z,91208.17
2017-12-10T20:06:43.526Z,91221.32
2017-12-10T20:09:11.887Z,91183.89
2017-12-10T20:11:40.227Z,91189.17
2017-12-10T20:14:08.575Z,91198.41
2017-12-10T20:16:36.915Z,91211.22
2017-12-10T20:19:05.255Z,91189.36
2017-12-10T20:21:33.716Z,91192.84
2017-12-10T20:24:02.051Z,91187.59
2017-12-10T20:26:30.392Z,91199.12
2017-12-10T20:28:58.739Z,91196.27
2017-12-10T20:31:27.089Z,91199.43
2017-12-10T20:33:55.896Z,91196.00
2017-12-10T20:36:24.244Z,91199.23
2017-12-10T20:38:52.786Z,91182.23
2017-12-10T20:41:21.152Z,91193.62
2017-12-10T20:43:49.492Z,91188.69
2017-12-10T20:46:17.891Z,91170.19
2017-12-10T20:48:46.266Z,91160.78
2017-12-10T20:51:14.665Z,91181.30
2017-12-10T20:53:42.996Z,91184.07
2017-12-10T20:56:11.334Z,91171.12
2017-12-10T20:58:39.675Z,91171.09
2017-12-10T21:01:08.015Z,91183.45
2017-12-10T21:03:36.399Z,91166.48
2017-12-10T21:06:04.740Z,91173.25
2017-12-10T21:08:33.118Z,91178.02
2017-12-10T21:11:01.454Z,91198.31
2017-12-10T21:13:29.786Z,91195.77
2017-12-10T21:15:58.123Z,91181.87
2017-12-10T21:18:26.464Z,91187.63
2017-12-10T21:20:54.809Z,91184.25
2017-12-10T21:23:23.147Z,91202.77
2017-12-10T21:25:51.555Z,91193.00
2017-12-10T21:28:19.916Z,91200.94
2017-12-10T21:30:48.264Z,91194.78
2017-12-10T21:33:16.608Z,91188.34
2017-12-10T21:35:44.934Z,91199.28
2017-12-10T21:38:13.295Z,91220.30
2017-12-10T21:40:41.686Z,91202.53
2017-12-10T21:43:10.027Z,91214.71
2017-12-10T21:45:38.363Z,91214.50
2017-12-10T21:48:06.702Z,91201.88
2017-12-10T21:50:35.039Z,91209.95
2017-12-10T21:53:03.515Z,91205.37
2017-12-10T21:55:31.872Z,91184.52
2017-12-10T21:58:00.212Z,91189.13
2017-12-10T22:00:28.552Z,91206.22
2017-12-10T22:02:56.891Z,91198.08
2017-12-10T22:05:25.362Z,91173.75
2017-12-10T22:07:53.696Z,91196.34
2017-12-10T22:10:22.026Z,91192.27
2017-12-10T22:12:50.372Z,91195.31
2017-12-10T22:15:18.711Z,91176.19
2017-12-10T22:17:47.070Z,91154.73
2017-12-10T22:20:15.450Z,91169.91
2017-12-10T22:22:43.795Z,91183.59
2017-12-10T22:25:12.146Z,91178.83
2017-12-10T22:27:40.478Z,91164.78
2017-12-10T22:30:08.812Z,91188.80
2017-12-10T22:32:37.187Z,91203.45
2017-12-10T22:35:05.539Z,91218.30
2017-12-10T22:37:33.885Z,91221.50
2017-12-10T22:40:02.246Z,91250.91
2017-12-10T22:42:30.587Z,91238.53
2017-12-10T22:44:58.978Z,91252.39
2017-12-10T22:47:27.318Z,91257.31
2017-12-10T22:49:55.656Z,91271.99
2017-12-10T22:52:24.036Z,91254.38
2017-12-10T22:54:52.399Z,91272.28
2017-12-10T22:57:20.735Z,91294.46
2017-12-10T22:59:49.089Z,91281.00
2017-12-10T23:02:17.454Z,91292.86
2017-12-10T23:04:45.804Z,91312.49
2017-12-10T23:07:14.142Z,91321.09
2017-12-10T23:09:42.523Z,91346.55
2017-12-10T23:12:10.843Z,91308.22
2017-12-10T23:14:41.048Z,91322.06
2017-12-10T23:17:09.382Z,91330.27
2017-12-10T23:19:37.755Z,91352.44
2017-12-10T23:22:06.104Z,91356.64
2017-12-10T23:24:34.447Z,91354.83
2017-12-10T23:27:02.815Z,91367.25
2017-12-10T23:29:31.182Z,91376.77
2017-12-10T23:31:59.530Z,91396.49
2017-12-10T23:34:27.870Z,91377.06
2017-12-10T23:36:56.227Z,91396.80
2017-12-10T23:39:24.590Z,91382.13
2017-12-10T23:41:52.992Z,91415.91
2017-12-10T23:44:21.292Z,91454.28
2017-12-10T23:46:49.658Z,91429.87
2017-12-10T23:49:18.002Z,91425.81
2017-12-10T23:51:46.467Z,91432.73
2017-12-10T23:54:14.807Z,91439.06
2017-12-10T23:56:43.151Z,91473.89
2017-12-10T23:59:11.498Z,91448.65
